Taxila Weather



Taxila's Current Weather

Temprature 21o few clouds

few clouds

Rain: 0 %

Min Temprature21o
Max Temprature21o
Humidity37
Wind Speed4.1 m/h
Sun Rise06:44:38
Sun Set18:00:03
Current Time: 23-Feb-2019 15:40:49
Lat/Lon: 33.75, 72.81




Taxila's Geo Location




Taxila's Weather Forecast

Time Overall Temp Min Temp Max Temp Humidity Wind Speed Rain
23-Feb-2019 (Sat)
17:00:00 few clouds 19.660 15.774 19.660 61 1.66 m/h 0 %
20:00:00 few clouds 11.680 8.759 11.680 73 1.02 m/h 0 %
23:00:00 clear sky 7.430 5.490 7.430 77 0.87 m/h 0 %
24-Feb-2019 (Sun)
02:00:00 clear sky 4.910 3.935 4.910 74 1.61 m/h 0 %
05:00:00 clear sky 2.367 2.367 2.367 81 1.56 m/h 0 %
08:00:00 clear sky 3.803 3.803 3.803 80 1.16 m/h 0 %
11:00:00 clear sky 13.174 13.174 13.174 79 1.86 m/h 0 %
14:00:00 clear sky 16.681 16.681 16.681 72 1.87 m/h 0 %
17:00:00 few clouds 16.221 16.221 16.221 60 0.95 m/h 0 %
20:00:00 few clouds 9.268 9.268 9.268 75 1.01 m/h 0 %
23:00:00 few clouds 6.311 6.311 6.311 79 1.46 m/h 0 %
25-Feb-2019 (Mon)
02:00:00 scattered clouds 4.955 4.955 4.955 79 1.17 m/h 0 %
05:00:00 light rain 4.702 4.702 4.702 84 1.31 m/h 14 %
08:00:00 light rain 6.295 6.295 6.295 76 2.02 m/h 9 %
11:00:00 light rain 9.022 9.022 9.022 81 3.01 m/h 56 %
14:00:00 moderate rain 9.173 9.173 9.173 99 4.32 m/h 418 %
17:00:00 moderate rain 8.487 8.487 8.487 98 2.41 m/h 844 %
20:00:00 moderate rain 8.073 8.073 8.073 95 2.41 m/h 415 %
23:00:00 light rain 7.767 7.767 7.767 96 2.21 m/h 104 %
26-Feb-2019 (Tue)
02:00:00 light rain 7.426 7.426 7.426 98 1.96 m/h 31 %
05:00:00 light rain 7.047 7.047 7.047 97 1.96 m/h 82 %
08:00:00 light rain 7.232 7.232 7.232 99 2.22 m/h 69 %
11:00:00 light rain 10.267 10.267 10.267 100 2.47 m/h 12 %
14:00:00 light rain 12.321 12.321 12.321 100 2.46 m/h 3 %
17:00:00 broken clouds 12.414 12.414 12.414 95 1.96 m/h 0 %
20:00:00 broken clouds 9.086 9.086 9.086 94 2.42 m/h 0 %
23:00:00 scattered clouds 6.848 6.848 6.848 95 2.07 m/h 0 %
27-Feb-2019 (Wed)
02:00:00 few clouds 4.231 4.231 4.231 91 0.96 m/h 0 %
05:00:00 clear sky 2.394 2.394 2.394 88 0.7 m/h 0 %
08:00:00 clear sky 4.065 4.065 4.065 84 0.87 m/h 0 %
11:00:00 clear sky 11.620 11.620 11.620 100 0.16 m/h 0 %
14:00:00 few clouds 14.011 14.011 14.011 92 1.85 m/h 0 %
17:00:00 light rain 12.023 12.023 12.023 79 4.26 m/h 37 %
20:00:00 clear sky 8.692 8.692 8.692 85 3.52 m/h 0 %
23:00:00 few clouds 5.991 5.991 5.991 92 1.57 m/h 0 %
28-Feb-2019 (Thu)
02:00:00 scattered clouds 4.341 4.341 4.341 85 1.76 m/h 0 %
05:00:00 scattered clouds 3.363 3.363 3.363 85 1.31 m/h 0 %
08:00:00 overcast clouds 4.690 4.690 4.690 78 1.76 m/h 0 %
11:00:00 overcast clouds 8.997 8.997 8.997 81 2.66 m/h 0 %
14:00:00 broken clouds 13.279 13.279 13.279 78 2.67 m/h 0 %

Famous Cities (60)